sensor_id;sensor_type;location;lat;lon;timestamp;P1;durP1;ratioP1;P2;durP2;ratioP2
7585;SDS011;12459;42.646;23.292;2023-08-07T00:25:14;26.03;;;24.83;;
7585;SDS011;12459;42.646;23.292;2023-08-07T00:40:16;24.67;;;23.47;;
7585;SDS011;12459;42.646;23.292;2023-08-07T00:55:18;24.83;;;23.63;;
7585;SDS011;12459;42.646;23.292;2023-08-07T01:10:38;25.10;;;23.90;;
7585;SDS011;12459;42.646;23.292;2023-08-07T01:26:00;22.83;;;21.73;;
7585;SDS011;12459;42.646;23.292;2023-08-07T01:41:02;26.27;;;25.03;;
7585;SDS011;12459;42.646;23.292;2023-08-07T01:56:05;22.13;;;21.03;;
7585;SDS011;12459;42.646;23.292;2023-08-07T02:11:06;21.00;;;20.00;;
7585;SDS011;12459;42.646;23.292;2023-08-07T02:26:08;22.83;;;21.73;;
7585;SDS011;12459;42.646;23.292;2023-08-07T02:41:10;22.30;;;21.20;;
7585;SDS011;12459;42.646;23.292;2023-08-07T02:56:12;23.27;;;22.17;;
7585;SDS011;12459;42.646;23.292;2023-08-07T03:11:14;20.27;;;19.27;;
7585;SDS011;12459;42.646;23.292;2023-08-07T03:26:15;23.63;;;22.53;;
7585;SDS011;12459;42.646;23.292;2023-08-07T03:41:20;24.07;;;22.90;;
7585;SDS011;12459;42.646;23.292;2023-08-07T03:56:21;22.90;;;21.80;;
7585;SDS011;12459;42.646;23.292;2023-08-07T04:11:23;23.37;;;22.27;;
7585;SDS011;12459;42.646;23.292;2023-08-07T04:26:25;22.27;;;21.20;;
7585;SDS011;12459;42.646;23.292;2023-08-07T04:41:27;24.63;;;23.43;;
7585;SDS011;12459;42.646;23.292;2023-08-07T04:56:29;22.67;;;21.57;;
7585;SDS011;12459;42.646;23.292;2023-08-07T05:11:32;24.20;;;23.03;;
7585;SDS011;12459;42.646;23.292;2023-08-07T05:26:35;23.93;;;22.80;;
7585;SDS011;12459;42.646;23.292;2023-08-07T05:41:36;28.60;;;27.30;;
7585;SDS011;12459;42.646;23.292;2023-08-07T05:56:40;32.00;;;30.50;;
7585;SDS011;12459;42.646;23.292;2023-08-07T06:11:42;34.10;;;32.50;;
7585;SDS011;12459;42.646;23.292;2023-08-07T06:26:44;32.93;;;31.43;;
7585;SDS011;12459;42.646;23.292;2023-08-07T06:41:46;32.57;;;31.07;;
7585;SDS011;12459;42.646;23.292;2023-08-07T06:56:47;33.50;;;31.93;;
7585;SDS011;12459;42.646;23.292;2023-08-07T07:11:49;32.67;;;31.17;;
7585;SDS011;12459;42.646;23.292;2023-08-07T07:26:51;32.53;;;31.03;;
7585;SDS011;12459;42.646;23.292;2023-08-07T07:41:53;36.30;;;34.60;;
7585;SDS011;12459;42.646;23.292;2023-08-07T07:56:55;33.63;;;32.03;;
7585;SDS011;12459;42.646;23.292;2023-08-07T08:11:58;33.83;;;32.23;;
7585;SDS011;12459;42.646;23.292;2023-08-07T08:27:00;36.40;;;34.70;;
7585;SDS011;12459;42.646;23.292;2023-08-07T08:42:02;38.80;;;37.00;;
7585;SDS011;12459;42.646;23.292;2023-08-07T08:57:04;39.57;;;37.77;;
7585;SDS011;12459;42.646;23.292;2023-08-07T09:12:16;37.93;;;36.17;;
7585;SDS011;12459;42.646;23.292;2023-08-07T09:27:21;37.60;;;35.90;;
7585;SDS011;12459;42.646;23.292;2023-08-07T09:42:22;37.03;;;35.33;;
7585;SDS011;12459;42.646;23.292;2023-08-07T09:57:24;38.87;;;37.07;;
7585;SDS011;12459;42.646;23.292;2023-08-07T10:12:26;38.50;;;36.70;;
7585;SDS011;12459;42.646;23.292;2023-08-07T10:27:33;37.63;;;35.93;;
7585;SDS011;12459;42.646;23.292;2023-08-07T10:42:51;43.70;;;41.70;;
7585;SDS011;12459;42.646;23.292;2023-08-07T10:58:23;44.77;;;42.73;;
7585;SDS011;12459;42.646;23.292;2023-08-07T11:13:31;45.03;;;43.00;;
7585;SDS011;12459;42.646;23.292;2023-08-07T11:28:33;42.10;;;40.20;;
7585;SDS011;12459;42.646;23.292;2023-08-07T11:43:35;49.70;;;47.43;;
7585;SDS011;12459;42.646;23.292;2023-08-07T11:58:39;47.33;;;45.20;;
7585;SDS011;12459;42.646;23.292;2023-08-07T12:13:44;46.80;;;44.70;;
7585;SDS011;12459;42.646;23.292;2023-08-07T12:28:46;47.07;;;44.97;;
7585;SDS011;12459;42.646;23.292;2023-08-07T12:43:48;43.33;;;41.33;;
7585;SDS011;12459;42.646;23.292;2023-08-07T12:58:50;38.20;;;36.43;;
7585;SDS011;12459;42.646;23.292;2023-08-07T13:13:52;48.57;;;46.37;;
7585;SDS011;12459;42.646;23.292;2023-08-07T13:28:53;38.77;;;36.97;;
7585;SDS011;12459;42.646;23.292;2023-08-07T13:43:55;44.53;;;42.53;;
7585;SDS011;12459;42.646;23.292;2023-08-07T13:58:57;41.37;;;39.47;;
7585;SDS011;12459;42.646;23.292;2023-08-07T14:13:58;41.60;;;39.70;;
7585;SDS011;12459;42.646;23.292;2023-08-07T14:29:00;38.97;;;37.17;;
7585;SDS011;12459;42.646;23.292;2023-08-07T14:44:02;40.57;;;38.70;;
7585;SDS011;12459;42.646;23.292;2023-08-07T14:59:04;35.67;;;34.03;;
7585;SDS011;12459;42.646;23.292;2023-08-07T15:14:05;36.90;;;35.20;;
7585;SDS011;12459;42.646;23.292;2023-08-07T15:29:07;32.70;;;31.20;;
7585;SDS011;12459;42.646;23.292;2023-08-07T15:44:09;33.80;;;32.20;;
7585;SDS011;12459;42.646;23.292;2023-08-07T15:59:10;33.03;;;31.53;;
7585;SDS011;12459;42.646;23.292;2023-08-07T16:14:12;33.17;;;31.67;;
7585;SDS011;12459;42.646;23.292;2023-08-07T16:29:14;32.00;;;30.50;;
7585;SDS011;12459;42.646;23.292;2023-08-07T16:44:15;30.07;;;28.67;;
7585;SDS011;12459;42.646;23.292;2023-08-07T16:59:17;30.57;;;29.17;;
7585;SDS011;12459;42.646;23.292;2023-08-07T17:14:19;28.47;;;27.17;;
7585;SDS011;12459;42.646;23.292;2023-08-07T17:29:21;29.50;;;28.10;;
7585;SDS011;12459;42.646;23.292;2023-08-07T17:44:23;30.30;;;28.90;;
7585;SDS011;12459;42.646;23.292;2023-08-07T17:59:24;31.50;;;30.00;;
7585;SDS011;12459;42.646;23.292;2023-08-07T18:14:26;31.57;;;30.07;;
7585;SDS011;12459;42.646;23.292;2023-08-07T18:29:28;28.60;;;27.27;;
7585;SDS011;12459;42.646;23.292;2023-08-07T18:44:30;29.30;;;27.90;;
7585;SDS011;12459;42.646;23.292;2023-08-07T18:59:31;29.60;;;28.20;;
7585;SDS011;12459;42.646;23.292;2023-08-07T19:14:33;25.10;;;23.90;;
7585;SDS011;12459;42.646;23.292;2023-08-07T19:29:35;27.40;;;26.10;;
7585;SDS011;12459;42.646;23.292;2023-08-07T19:44:36;25.30;;;24.10;;
7585;SDS011;12459;42.646;23.292;2023-08-07T19:59:38;26.13;;;24.93;;
7585;SDS011;12459;42.646;23.292;2023-08-07T20:14:40;28.87;;;27.50;;
7585;SDS011;12459;42.646;23.292;2023-08-07T20:29:42;27.97;;;26.67;;
7585;SDS011;12459;42.646;23.292;2023-08-07T20:44:44;30.00;;;28.60;;
7585;SDS011;12459;42.646;23.292;2023-08-07T20:59:45;29.77;;;28.37;;
7585;SDS011;12459;42.646;23.292;2023-08-07T21:14:47;28.10;;;26.80;;
7585;SDS011;12459;42.646;23.292;2023-08-07T21:29:49;27.90;;;26.60;;
7585;SDS011;12459;42.646;23.292;2023-08-07T21:44:51;25.23;;;24.03;;
7585;SDS011;12459;42.646;23.292;2023-08-07T21:59:54;24.90;;;23.70;;
7585;SDS011;12459;42.646;23.292;2023-08-07T22:14:55;26.13;;;24.93;;
7585;SDS011;12459;42.646;23.292;2023-08-07T22:29:57;25.90;;;24.70;;
7585;SDS011;12459;42.646;23.292;2023-08-07T22:44:59;26.97;;;25.67;;
7585;SDS011;12459;42.646;23.292;2023-08-07T23:00:02;23.90;;;22.77;;
7585;SDS011;12459;42.646;23.292;2023-08-07T23:15:06;22.03;;;20.93;;
7585;SDS011;12459;42.646;23.292;2023-08-07T23:30:08;25.20;;;24.00;;
7585;SDS011;12459;42.646;23.292;2023-08-07T23:45:11;23.73;;;22.60;;
